Arlington, Illinois
Current Conditions -  °F | °C
As of 10:15 AM on Thursday 29 Jan 2015 (Local Time) from KVYS Reporting Station
Overcast Overcast  
Wind Chill: 22°   Ceiling: 1800
Heat Index: 35°   Visibility: 7mi
Dew Point: 30°   Wind: 24mph
Humidity: 84%   Direction: 310°NW
Pressure: 29.98"   Gusts: 28mph
Location:  41.47°N, 89.25°W
Report Text: KVYS 291615Z AUTO 31021G24KT 7SM OVC018 02/M01 A2998 RMK AO2 T00151010
Loading
Personal Weather Stations






























Interactive Weather Map New forecast layout! Learn more

10-Day Weather Forecast

Advertisements
Track Severe Weather on mobile